sensor_id;sensor_type;location;lat;lon;timestamp;P1;durP1;ratioP1;P2;durP2;ratioP2
4971;SDS011;2501;51.214;6.768;2024-03-22T00:01:56;50.15;;;24.60;;
4971;SDS011;2501;51.214;6.768;2024-03-22T00:04:22;51.22;;;25.25;;
4971;SDS011;2501;51.214;6.768;2024-03-22T00:06:49;47.40;;;22.73;;
4971;SDS011;2501;51.214;6.768;2024-03-22T00:09:15;47.25;;;24.23;;
4971;SDS011;2501;51.214;6.768;2024-03-22T00:11:41;52.67;;;24.30;;
4971;SDS011;2501;51.214;6.768;2024-03-22T00:14:08;49.10;;;23.48;;
4971;SDS011;2501;51.214;6.768;2024-03-22T00:16:35;51.28;;;23.65;;
4971;SDS011;2501;51.214;6.768;2024-03-22T00:19:04;50.78;;;23.08;;
4971;SDS011;2501;51.214;6.768;2024-03-22T00:21:30;52.95;;;24.45;;
4971;SDS011;2501;51.214;6.768;2024-03-22T00:23:56;51.47;;;23.77;;
4971;SDS011;2501;51.214;6.768;2024-03-22T00:26:22;51.10;;;24.10;;
4971;SDS011;2501;51.214;6.768;2024-03-22T00:28:48;48.28;;;24.73;;
4971;SDS011;2501;51.214;6.768;2024-03-22T00:31:14;49.50;;;24.77;;
4971;SDS011;2501;51.214;6.768;2024-03-22T00:33:41;51.35;;;24.00;;
4971;SDS011;2501;51.214;6.768;2024-03-22T00:36:10;52.07;;;23.60;;
4971;SDS011;2501;51.214;6.768;2024-03-22T00:38:36;57.58;;;31.80;;
4971;SDS011;2501;51.214;6.768;2024-03-22T00:41:01;49.92;;;23.77;;
4971;SDS011;2501;51.214;6.768;2024-03-22T00:43:27;51.93;;;24.53;;
4971;SDS011;2501;51.214;6.768;2024-03-22T00:45:53;55.40;;;23.80;;
4971;SDS011;2501;51.214;6.768;2024-03-22T00:48:19;48.67;;;23.40;;
4971;SDS011;2501;51.214;6.768;2024-03-22T00:50:45;61.97;;;24.60;;
4971;SDS011;2501;51.214;6.768;2024-03-22T00:53:13;53.93;;;24.33;;
4971;SDS011;2501;51.214;6.768;2024-03-22T00:55:39;45.10;;;23.30;;
4971;SDS011;2501;51.214;6.768;2024-03-22T00:58:05;51.35;;;23.52;;
4971;SDS011;2501;51.214;6.768;2024-03-22T01:00:31;51.67;;;24.60;;
4971;SDS011;2501;51.214;6.768;2024-03-22T01:02:57;46.65;;;23.58;;
4971;SDS011;2501;51.214;6.768;2024-03-22T01:05:22;53.67;;;25.47;;
4971;SDS011;2501;51.214;6.768;2024-03-22T01:07:48;48.50;;;22.35;;
4971;SDS011;2501;51.214;6.768;2024-03-22T01:10:17;49.77;;;24.73;;
4971;SDS011;2501;51.214;6.768;2024-03-22T01:12:43;52.35;;;23.52;;
4971;SDS011;2501;51.214;6.768;2024-03-22T01:15:09;54.07;;;23.93;;
4971;SDS011;2501;51.214;6.768;2024-03-22T01:17:35;49.92;;;21.90;;
4971;SDS011;2501;51.214;6.768;2024-03-22T01:20:00;49.33;;;22.13;;
4971;SDS011;2501;51.214;6.768;2024-03-22T01:22:26;43.63;;;21.92;;
4971;SDS011;2501;51.214;6.768;2024-03-22T01:24:52;43.55;;;23.02;;
4971;SDS011;2501;51.214;6.768;2024-03-22T01:27:21;47.60;;;21.40;;
4971;SDS011;2501;51.214;6.768;2024-03-22T01:29:47;45.53;;;22.40;;
4971;SDS011;2501;51.214;6.768;2024-03-22T01:32:13;51.42;;;21.20;;
4971;SDS011;2501;51.214;6.768;2024-03-22T01:34:39;40.78;;;21.00;;
4971;SDS011;2501;51.214;6.768;2024-03-22T01:37:05;75.70;;;36.80;;
4971;SDS011;2501;51.214;6.768;2024-03-22T01:39:31;59.60;;;29.25;;
4971;SDS011;2501;51.214;6.768;2024-03-22T01:41:57;43.85;;;20.85;;
4971;SDS011;2501;51.214;6.768;2024-03-22T01:44:29;44.05;;;19.40;;
4971;SDS011;2501;51.214;6.768;2024-03-22T01:46:57;46.90;;;21.45;;
4971;SDS011;2501;51.214;6.768;2024-03-22T01:49:23;40.47;;;20.20;;
4971;SDS011;2501;51.214;6.768;2024-03-22T01:51:51;41.67;;;20.27;;
4971;SDS011;2501;51.214;6.768;2024-03-22T01:54:18;40.72;;;19.77;;
4971;SDS011;2501;51.214;6.768;2024-03-22T01:56:45;42.53;;;19.97;;
4971;SDS011;2501;51.214;6.768;2024-03-22T01:59:11;41.85;;;19.20;;
4971;SDS011;2501;51.214;6.768;2024-03-22T02:01:40;42.05;;;19.00;;
4971;SDS011;2501;51.214;6.768;2024-03-22T02:04:06;44.72;;;19.65;;
4971;SDS011;2501;51.214;6.768;2024-03-22T02:06:32;39.25;;;19.05;;
4971;SDS011;2501;51.214;6.768;2024-03-22T02:08:58;36.73;;;18.03;;
4971;SDS011;2501;51.214;6.768;2024-03-22T02:11:24;43.92;;;20.08;;
4971;SDS011;2501;51.214;6.768;2024-03-22T02:13:51;38.72;;;18.55;;
4971;SDS011;2501;51.214;6.768;2024-03-22T02:16:17;37.47;;;18.70;;
4971;SDS011;2501;51.214;6.768;2024-03-22T02:18:45;37.43;;;19.00;;
4971;SDS011;2501;51.214;6.768;2024-03-22T02:21:14;43.03;;;19.67;;
4971;SDS011;2501;51.214;6.768;2024-03-22T02:23:43;39.75;;;19.40;;
4971;SDS011;2501;51.214;6.768;2024-03-22T02:26:09;39.08;;;18.17;;
4971;SDS011;2501;51.214;6.768;2024-03-22T02:28:35;44.10;;;20.13;;
4971;SDS011;2501;51.214;6.768;2024-03-22T02:31:01;41.85;;;19.58;;
4971;SDS011;2501;51.214;6.768;2024-03-22T02:33:28;42.38;;;20.05;;
4971;SDS011;2501;51.214;6.768;2024-03-22T02:35:54;40.80;;;18.67;;
4971;SDS011;2501;51.214;6.768;2024-03-22T02:38:20;36.35;;;18.40;;
4971;SDS011;2501;51.214;6.768;2024-03-22T02:40:49;40.13;;;18.30;;
4971;SDS011;2501;51.214;6.768;2024-03-22T02:43:16;43.58;;;19.90;;
4971;SDS011;2501;51.214;6.768;2024-03-22T02:45:42;40.40;;;18.92;;
4971;SDS011;2501;51.214;6.768;2024-03-22T02:48:08;38.00;;;18.70;;
4971;SDS011;2501;51.214;6.768;2024-03-22T02:50:34;43.65;;;19.27;;
4971;SDS011;2501;51.214;6.768;2024-03-22T02:53:00;40.75;;;19.50;;
4971;SDS011;2501;51.214;6.768;2024-03-22T02:55:26;41.28;;;18.95;;
4971;SDS011;2501;51.214;6.768;2024-03-22T02:57:55;38.13;;;19.15;;
4971;SDS011;2501;51.214;6.768;2024-03-22T03:00:22;38.33;;;18.27;;
4971;SDS011;2501;51.214;6.768;2024-03-22T03:02:47;42.38;;;18.60;;
4971;SDS011;2501;51.214;6.768;2024-03-22T03:05:13;37.70;;;17.67;;
4971;SDS011;2501;51.214;6.768;2024-03-22T03:07:39;36.15;;;18.75;;
4971;SDS011;2501;51.214;6.768;2024-03-22T03:10:06;35.47;;;18.88;;
4971;SDS011;2501;51.214;6.768;2024-03-22T03:12:32;33.83;;;17.92;;
4971;SDS011;2501;51.214;6.768;2024-03-22T03:15:01;39.45;;;18.77;;
4971;SDS011;2501;51.214;6.768;2024-03-22T03:17:27;38.08;;;18.67;;
4971;SDS011;2501;51.214;6.768;2024-03-22T03:19:53;42.30;;;18.02;;
4971;SDS011;2501;51.214;6.768;2024-03-22T03:22:18;35.13;;;16.70;;
4971;SDS011;2501;51.214;6.768;2024-03-22T03:24:44;38.13;;;16.13;;
4971;SDS011;2501;51.214;6.768;2024-03-22T03:27:10;37.77;;;17.80;;
4971;SDS011;2501;51.214;6.768;2024-03-22T03:29:36;37.00;;;18.48;;
4971;SDS011;2501;51.214;6.768;2024-03-22T03:32:04;32.27;;;17.30;;
4971;SDS011;2501;51.214;6.768;2024-03-22T03:34:30;34.55;;;16.63;;
4971;SDS011;2501;51.214;6.768;2024-03-22T03:36:57;44.90;;;18.20;;
4971;SDS011;2501;51.214;6.768;2024-03-22T03:39:23;33.88;;;16.95;;
4971;SDS011;2501;51.214;6.768;2024-03-22T03:41:49;35.30;;;16.50;;
4971;SDS011;2501;51.214;6.768;2024-03-22T03:44:15;36.00;;;16.50;;
4971;SDS011;2501;51.214;6.768;2024-03-22T03:46:41;38.77;;;16.47;;
4971;SDS011;2501;51.214;6.768;2024-03-22T03:49:09;36.22;;;17.30;;
4971;SDS011;2501;51.214;6.768;2024-03-22T03:51:35;35.47;;;16.38;;
4971;SDS011;2501;51.214;6.768;2024-03-22T03:54:01;32.67;;;16.40;;
4971;SDS011;2501;51.214;6.768;2024-03-22T03:56:26;40.58;;;19.25;;
4971;SDS011;2501;51.214;6.768;2024-03-22T03:58:52;39.87;;;17.40;;
4971;SDS011;2501;51.214;6.768;2024-03-22T04:01:18;33.72;;;16.67;;
4971;SDS011;2501;51.214;6.768;2024-03-22T04:03:44;32.00;;;16.23;;
4971;SDS011;2501;51.214;6.768;2024-03-22T04:06:12;35.28;;;15.68;;
4971;SDS011;2501;51.214;6.768;2024-03-22T04:08:38;36.83;;;16.05;;
4971;SDS011;2501;51.214;6.768;2024-03-22T04:11:04;32.43;;;15.10;;
4971;SDS011;2501;51.214;6.768;2024-03-22T04:13:30;34.42;;;16.88;;
4971;SDS011;2501;51.214;6.768;2024-03-22T04:15:58;32.93;;;17.20;;
4971;SDS011;2501;51.214;6.768;2024-03-22T04:18:24;35.70;;;17.17;;
4971;SDS011;2501;51.214;6.768;2024-03-22T04:20:54;34.10;;;15.52;;
4971;SDS011;2501;51.214;6.768;2024-03-22T04:23:23;33.95;;;16.83;;
4971;SDS011;2501;51.214;6.768;2024-03-22T04:25:53;31.95;;;15.80;;
4971;SDS011;2501;51.214;6.768;2024-03-22T04:28:20;29.42;;;14.32;;
4971;SDS011;2501;51.214;6.768;2024-03-22T04:30:53;31.53;;;15.27;;
4971;SDS011;2501;51.214;6.768;2024-03-22T04:33:20;34.15;;;14.77;;
4971;SDS011;2501;51.214;6.768;2024-03-22T04:35:46;31.00;;;15.45;;
4971;SDS011;2501;51.214;6.768;2024-03-22T04:38:12;32.53;;;15.63;;
4971;SDS011;2501;51.214;6.768;2024-03-22T04:40:41;31.00;;;15.85;;
4971;SDS011;2501;51.214;6.768;2024-03-22T04:43:07;34.58;;;16.30;;
4971;SDS011;2501;51.214;6.768;2024-03-22T04:45:33;34.25;;;17.33;;
4971;SDS011;2501;51.214;6.768;2024-03-22T04:48:00;41.58;;;21.50;;
4971;SDS011;2501;51.214;6.768;2024-03-22T04:50:27;32.60;;;16.10;;
4971;SDS011;2501;51.214;6.768;2024-03-22T04:52:52;31.52;;;16.23;;
4971;SDS011;2501;51.214;6.768;2024-03-22T04:55:18;29.35;;;15.88;;
4971;SDS011;2501;51.214;6.768;2024-03-22T04:57:47;31.17;;;15.80;;
4971;SDS011;2501;51.214;6.768;2024-03-22T05:00:13;33.78;;;16.70;;
4971;SDS011;2501;51.214;6.768;2024-03-22T05:02:42;28.30;;;15.02;;
4971;SDS011;2501;51.214;6.768;2024-03-22T05:05:08;33.00;;;16.20;;
4971;SDS011;2501;51.214;6.768;2024-03-22T05:07:34;34.38;;;16.63;;
4971;SDS011;2501;51.214;6.768;2024-03-22T05:10:00;36.53;;;17.10;;
4971;SDS011;2501;51.214;6.768;2024-03-22T05:12:26;33.08;;;16.10;;
4971;SDS011;2501;51.214;6.768;2024-03-22T05:14:54;33.55;;;17.40;;
4971;SDS011;2501;51.214;6.768;2024-03-22T05:17:20;35.20;;;16.60;;
4971;SDS011;2501;51.214;6.768;2024-03-22T05:19:46;27.33;;;16.17;;
4971;SDS011;2501;51.214;6.768;2024-03-22T05:22:12;31.60;;;16.70;;
4971;SDS011;2501;51.214;6.768;2024-03-22T05:24:38;35.10;;;16.00;;
4971;SDS011;2501;51.214;6.768;2024-03-22T05:27:03;27.92;;;15.63;;
4971;SDS011;2501;51.214;6.768;2024-03-22T05:29:29;31.85;;;17.05;;
4971;SDS011;2501;51.214;6.768;2024-03-22T05:31:58;33.17;;;15.27;;
4971;SDS011;2501;51.214;6.768;2024-03-22T05:34:24;29.33;;;16.00;;
4971;SDS011;2501;51.214;6.768;2024-03-22T05:36:49;33.90;;;16.40;;
4971;SDS011;2501;51.214;6.768;2024-03-22T05:39:15;26.70;;;16.20;;
4971;SDS011;2501;51.214;6.768;2024-03-22T05:41:41;30.55;;;16.23;;
4971;SDS011;2501;51.214;6.768;2024-03-22T05:44:07;29.23;;;16.43;;
4971;SDS011;2501;51.214;6.768;2024-03-22T05:46:33;33.28;;;17.40;;
4971;SDS011;2501;51.214;6.768;2024-03-22T05:49:02;30.85;;;17.38;;
4971;SDS011;2501;51.214;6.768;2024-03-22T05:51:27;35.03;;;17.65;;
4971;SDS011;2501;51.214;6.768;2024-03-22T05:53:54;29.88;;;16.08;;
4971;SDS011;2501;51.214;6.768;2024-03-22T05:56:20;32.30;;;18.20;;
4971;SDS011;2501;51.214;6.768;2024-03-22T05:58:45;30.88;;;17.15;;
4971;SDS011;2501;51.214;6.768;2024-03-22T06:01:11;30.53;;;18.23;;
4971;SDS011;2501;51.214;6.768;2024-03-22T06:03:37;33.17;;;18.05;;
4971;SDS011;2501;51.214;6.768;2024-03-22T06:06:06;30.60;;;17.07;;
4971;SDS011;2501;51.214;6.768;2024-03-22T06:08:32;27.85;;;16.60;;
4971;SDS011;2501;51.214;6.768;2024-03-22T06:10:57;30.10;;;17.58;;
4971;SDS011;2501;51.214;6.768;2024-03-22T06:13:23;28.92;;;16.92;;
4971;SDS011;2501;51.214;6.768;2024-03-22T06:15:49;30.27;;;16.23;;
4971;SDS011;2501;51.214;6.768;2024-03-22T06:18:15;37.22;;;18.80;;
4971;SDS011;2501;51.214;6.768;2024-03-22T06:20:41;32.78;;;19.02;;
4971;SDS011;2501;51.214;6.768;2024-03-22T06:23:10;30.20;;;16.90;;
4971;SDS011;2501;51.214;6.768;2024-03-22T06:25:36;32.00;;;17.05;;
4971;SDS011;2501;51.214;6.768;2024-03-22T06:28:02;30.38;;;17.38;;
4971;SDS011;2501;51.214;6.768;2024-03-22T06:30:28;35.15;;;16.55;;
4971;SDS011;2501;51.214;6.768;2024-03-22T06:32:54;30.93;;;16.93;;
4971;SDS011;2501;51.214;6.768;2024-03-22T06:35:20;28.50;;;16.48;;
4971;SDS011;2501;51.214;6.768;2024-03-22T06:37:45;32.53;;;16.55;;
4971;SDS011;2501;51.214;6.768;2024-03-22T06:40:14;29.15;;;15.25;;
4971;SDS011;2501;51.214;6.768;2024-03-22T06:42:40;27.27;;;15.63;;
4971;SDS011;2501;51.214;6.768;2024-03-22T06:45:06;27.48;;;14.77;;
4971;SDS011;2501;51.214;6.768;2024-03-22T06:47:32;26.05;;;15.35;;
4971;SDS011;2501;51.214;6.768;2024-03-22T06:49:58;25.20;;;15.82;;
4971;SDS011;2501;51.214;6.768;2024-03-22T06:52:24;28.30;;;16.83;;
4971;SDS011;2501;51.214;6.768;2024-03-22T06:54:50;29.35;;;17.30;;
4971;SDS011;2501;51.214;6.768;2024-03-22T06:57:19;31.43;;;17.83;;
4971;SDS011;2501;51.214;6.768;2024-03-22T06:59:44;33.75;;;17.08;;
4971;SDS011;2501;51.214;6.768;2024-03-22T07:02:10;29.27;;;18.10;;
4971;SDS011;2501;51.214;6.768;2024-03-22T07:04:36;33.97;;;18.10;;
4971;SDS011;2501;51.214;6.768;2024-03-22T07:07:02;35.15;;;18.65;;
4971;SDS011;2501;51.214;6.768;2024-03-22T07:09:28;34.40;;;18.97;;
4971;SDS011;2501;51.214;6.768;2024-03-22T07:11:53;35.78;;;19.98;;
4971;SDS011;2501;51.214;6.768;2024-03-22T07:14:22;40.30;;;21.37;;
4971;SDS011;2501;51.214;6.768;2024-03-22T07:16:48;37.07;;;20.50;;
4971;SDS011;2501;51.214;6.768;2024-03-22T07:19:14;36.65;;;20.00;;
4971;SDS011;2501;51.214;6.768;2024-03-22T07:21:39;35.87;;;20.23;;
4971;SDS011;2501;51.214;6.768;2024-03-22T07:24:05;43.17;;;20.17;;
4971;SDS011;2501;51.214;6.768;2024-03-22T07:26:31;36.87;;;21.27;;
4971;SDS011;2501;51.214;6.768;2024-03-22T07:28:57;37.53;;;20.60;;
4971;SDS011;2501;51.214;6.768;2024-03-22T07:31:25;38.38;;;22.00;;
4971;SDS011;2501;51.214;6.768;2024-03-22T07:33:52;36.92;;;21.45;;
4971;SDS011;2501;51.214;6.768;2024-03-22T07:36:18;33.92;;;20.40;;
4971;SDS011;2501;51.214;6.768;2024-03-22T07:38:44;37.57;;;19.97;;
4971;SDS011;2501;51.214;6.768;2024-03-22T07:41:10;39.28;;;22.08;;
4971;SDS011;2501;51.214;6.768;2024-03-22T07:43:36;35.60;;;21.40;;
4971;SDS011;2501;51.214;6.768;2024-03-22T07:46:02;39.97;;;22.85;;
4971;SDS011;2501;51.214;6.768;2024-03-22T07:48:31;37.28;;;21.58;;
4971;SDS011;2501;51.214;6.768;2024-03-22T07:50:57;42.00;;;21.40;;
4971;SDS011;2501;51.214;6.768;2024-03-22T07:53:23;35.05;;;21.60;;
4971;SDS011;2501;51.214;6.768;2024-03-22T07:55:49;45.15;;;22.98;;
4971;SDS011;2501;51.214;6.768;2024-03-22T07:58:14;42.93;;;24.63;;
4971;SDS011;2501;51.214;6.768;2024-03-22T08:00:40;40.20;;;22.90;;
4971;SDS011;2501;51.214;6.768;2024-03-22T08:03:06;41.65;;;23.13;;
4971;SDS011;2501;51.214;6.768;2024-03-22T08:05:35;39.72;;;24.10;;
4971;SDS011;2501;51.214;6.768;2024-03-22T08:08:01;36.45;;;22.02;;
4971;SDS011;2501;51.214;6.768;2024-03-22T08:10:27;38.90;;;23.45;;
4971;SDS011;2501;51.214;6.768;2024-03-22T08:12:53;43.40;;;22.95;;
4971;SDS011;2501;51.214;6.768;2024-03-22T08:15:18;45.23;;;23.63;;
4971;SDS011;2501;51.214;6.768;2024-03-22T08:17:44;35.92;;;21.88;;
4971;SDS011;2501;51.214;6.768;2024-03-22T08:20:10;45.03;;;23.37;;
4971;SDS011;2501;51.214;6.768;2024-03-22T08:22:38;39.25;;;21.20;;
4971;SDS011;2501;51.214;6.768;2024-03-22T08:25:04;37.60;;;20.90;;
4971;SDS011;2501;51.214;6.768;2024-03-22T08:27:31;40.58;;;21.60;;
4971;SDS011;2501;51.214;6.768;2024-03-22T08:29:57;37.65;;;21.77;;
4971;SDS011;2501;51.214;6.768;2024-03-22T08:32:22;42.05;;;22.13;;
4971;SDS011;2501;51.214;6.768;2024-03-22T08:34:48;43.00;;;22.15;;
4971;SDS011;2501;51.214;6.768;2024-03-22T08:37:14;36.13;;;21.43;;
4971;SDS011;2501;51.214;6.768;2024-03-22T08:39:42;36.65;;;20.63;;
4971;SDS011;2501;51.214;6.768;2024-03-22T08:42:08;42.20;;;19.38;;
4971;SDS011;2501;51.214;6.768;2024-03-22T08:44:34;37.85;;;18.80;;
4971;SDS011;2501;51.214;6.768;2024-03-22T08:47:00;34.53;;;20.20;;
4971;SDS011;2501;51.214;6.768;2024-03-22T08:49:26;37.55;;;20.77;;
4971;SDS011;2501;51.214;6.768;2024-03-22T08:51:52;42.23;;;19.97;;
4971;SDS011;2501;51.214;6.768;2024-03-22T08:54:18;38.72;;;20.60;;
4971;SDS011;2501;51.214;6.768;2024-03-22T08:56:46;31.93;;;17.30;;
4971;SDS011;2501;51.214;6.768;2024-03-22T08:59:12;29.60;;;17.73;;
4971;SDS011;2501;51.214;6.768;2024-03-22T09:01:38;29.05;;;17.50;;
4971;SDS011;2501;51.214;6.768;2024-03-22T09:04:04;30.87;;;17.13;;
4971;SDS011;2501;51.214;6.768;2024-03-22T09:06:29;29.48;;;16.33;;
4971;SDS011;2501;51.214;6.768;2024-03-22T09:08:56;34.53;;;19.00;;
4971;SDS011;2501;51.214;6.768;2024-03-22T09:11:22;30.08;;;17.60;;
4971;SDS011;2501;51.214;6.768;2024-03-22T09:13:50;30.65;;;17.52;;
4971;SDS011;2501;51.214;6.768;2024-03-22T09:16:17;33.20;;;17.13;;
4971;SDS011;2501;51.214;6.768;2024-03-22T09:18:42;28.40;;;16.67;;
4971;SDS011;2501;51.214;6.768;2024-03-22T09:21:08;30.83;;;16.42;;
4971;SDS011;2501;51.214;6.768;2024-03-22T09:23:34;27.73;;;16.40;;
4971;SDS011;2501;51.214;6.768;2024-03-22T09:26:00;28.25;;;17.17;;
4971;SDS011;2501;51.214;6.768;2024-03-22T09:28:26;29.93;;;16.50;;
4971;SDS011;2501;51.214;6.768;2024-03-22T09:30:54;29.38;;;16.70;;
4971;SDS011;2501;51.214;6.768;2024-03-22T09:33:20;28.60;;;16.15;;
4971;SDS011;2501;51.214;6.768;2024-03-22T09:35:46;26.67;;;16.40;;
4971;SDS011;2501;51.214;6.768;2024-03-22T09:38:12;25.15;;;15.77;;
4971;SDS011;2501;51.214;6.768;2024-03-22T09:40:38;30.70;;;17.27;;
4971;SDS011;2501;51.214;6.768;2024-03-22T09:43:04;29.73;;;17.33;;
4971;SDS011;2501;51.214;6.768;2024-03-22T09:45:32;25.15;;;14.50;;
4971;SDS011;2501;51.214;6.768;2024-03-22T09:48:01;21.05;;;13.20;;
4971;SDS011;2501;51.214;6.768;2024-03-22T09:50:28;23.60;;;14.30;;
4971;SDS011;2501;51.214;6.768;2024-03-22T09:52:55;30.45;;;14.25;;
4971;SDS011;2501;51.214;6.768;2024-03-22T09:55:22;27.20;;;14.70;;
4971;SDS011;2501;51.214;6.768;2024-03-22T09:57:48;33.55;;;16.40;;
4971;SDS011;2501;51.214;6.768;2024-03-22T10:00:15;27.40;;;14.88;;
4971;SDS011;2501;51.214;6.768;2024-03-22T10:02:43;26.23;;;14.45;;
4971;SDS011;2501;51.214;6.768;2024-03-22T10:05:13;20.83;;;13.30;;
4971;SDS011;2501;51.214;6.768;2024-03-22T10:07:39;30.00;;;12.15;;
4971;SDS011;2501;51.214;6.768;2024-03-22T10:10:06;22.10;;;10.90;;
4971;SDS011;2501;51.214;6.768;2024-03-22T10:12:32;20.67;;;11.90;;
4971;SDS011;2501;51.214;6.768;2024-03-22T10:14:58;18.40;;;12.52;;
4971;SDS011;2501;51.214;6.768;2024-03-22T10:17:25;20.92;;;12.85;;
4971;SDS011;2501;51.214;6.768;2024-03-22T10:19:52;22.48;;;13.07;;
4971;SDS011;2501;51.214;6.768;2024-03-22T10:22:20;21.98;;;12.70;;
4971;SDS011;2501;51.214;6.768;2024-03-22T10:24:46;28.52;;;14.68;;
4971;SDS011;2501;51.214;6.768;2024-03-22T10:27:12;27.50;;;14.07;;
4971;SDS011;2501;51.214;6.768;2024-03-22T10:29:39;23.57;;;14.23;;
4971;SDS011;2501;51.214;6.768;2024-03-22T10:32:05;26.98;;;15.05;;
4971;SDS011;2501;51.214;6.768;2024-03-22T10:34:33;25.33;;;15.10;;
4971;SDS011;2501;51.214;6.768;2024-03-22T10:37:00;23.58;;;15.05;;
4971;SDS011;2501;51.214;6.768;2024-03-22T10:39:29;22.83;;;15.38;;
4971;SDS011;2501;51.214;6.768;2024-03-22T10:41:56;25.63;;;15.30;;
4971;SDS011;2501;51.214;6.768;2024-03-22T10:44:22;23.00;;;14.90;;
4971;SDS011;2501;51.214;6.768;2024-03-22T10:46:48;26.67;;;15.87;;
4971;SDS011;2501;51.214;6.768;2024-03-22T10:49:15;26.17;;;13.63;;
4971;SDS011;2501;51.214;6.768;2024-03-22T10:51:42;24.50;;;15.68;;
4971;SDS011;2501;51.214;6.768;2024-03-22T10:54:10;25.52;;;15.30;;
4971;SDS011;2501;51.214;6.768;2024-03-22T10:56:41;24.52;;;15.25;;
4971;SDS011;2501;51.214;6.768;2024-03-22T10:59:08;27.00;;;16.25;;
4971;SDS011;2501;51.214;6.768;2024-03-22T11:01:34;26.70;;;15.00;;
4971;SDS011;2501;51.214;6.768;2024-03-22T11:04:04;27.00;;;15.57;;
4971;SDS011;2501;51.214;6.768;2024-03-22T11:06:30;27.35;;;14.75;;
4971;SDS011;2501;51.214;6.768;2024-03-22T11:08:58;25.35;;;14.98;;
4971;SDS011;2501;51.214;6.768;2024-03-22T11:11:25;25.50;;;15.00;;
4971;SDS011;2501;51.214;6.768;2024-03-22T11:13:56;26.80;;;14.20;;
4971;SDS011;2501;51.214;6.768;2024-03-22T11:16:22;26.77;;;16.33;;
4971;SDS011;2501;51.214;6.768;2024-03-22T11:18:48;27.05;;;15.68;;
4971;SDS011;2501;51.214;6.768;2024-03-22T11:21:14;29.42;;;16.38;;
4971;SDS011;2501;51.214;6.768;2024-03-22T11:23:40;25.58;;;14.52;;
4971;SDS011;2501;51.214;6.768;2024-03-22T11:26:09;22.85;;;14.68;;
4971;SDS011;2501;51.214;6.768;2024-03-22T11:28:35;27.75;;;15.27;;
4971;SDS011;2501;51.214;6.768;2024-03-22T11:31:04;24.50;;;15.32;;
4971;SDS011;2501;51.214;6.768;2024-03-22T11:33:30;28.92;;;16.20;;
4971;SDS011;2501;51.214;6.768;2024-03-22T11:35:57;29.67;;;17.00;;
4971;SDS011;2501;51.214;6.768;2024-03-22T11:38:24;23.35;;;15.32;;
4971;SDS011;2501;51.214;6.768;2024-03-22T11:40:52;25.58;;;14.95;;
4971;SDS011;2501;51.214;6.768;2024-03-22T11:43:19;25.55;;;13.32;;
4971;SDS011;2501;51.214;6.768;2024-03-22T11:45:45;26.73;;;13.90;;
4971;SDS011;2501;51.214;6.768;2024-03-22T11:48:14;20.45;;;13.57;;
4971;SDS011;2501;51.214;6.768;2024-03-22T11:50:40;31.75;;;14.45;;
4971;SDS011;2501;51.214;6.768;2024-03-22T11:53:06;23.97;;;13.50;;
4971;SDS011;2501;51.214;6.768;2024-03-22T11:55:32;22.17;;;13.40;;
4971;SDS011;2501;51.214;6.768;2024-03-22T11:57:58;22.13;;;13.50;;
4971;SDS011;2501;51.214;6.768;2024-03-22T12:00:24;23.63;;;13.30;;
4971;SDS011;2501;51.214;6.768;2024-03-22T12:02:51;25.95;;;14.80;;
4971;SDS011;2501;51.214;6.768;2024-03-22T12:05:19;23.80;;;14.60;;
4971;SDS011;2501;51.214;6.768;2024-03-22T12:07:46;26.58;;;15.60;;
4971;SDS011;2501;51.214;6.768;2024-03-22T12:10:12;29.57;;;14.53;;
4971;SDS011;2501;51.214;6.768;2024-03-22T12:12:38;24.30;;;15.90;;
4971;SDS011;2501;51.214;6.768;2024-03-22T12:15:04;27.98;;;17.35;;
4971;SDS011;2501;51.214;6.768;2024-03-22T12:17:31;27.35;;;17.25;;
4971;SDS011;2501;51.214;6.768;2024-03-22T12:19:57;24.93;;;16.23;;
4971;SDS011;2501;51.214;6.768;2024-03-22T12:22:25;24.98;;;16.05;;
4971;SDS011;2501;51.214;6.768;2024-03-22T12:24:51;29.77;;;16.60;;
4971;SDS011;2501;51.214;6.768;2024-03-22T12:27:17;27.17;;;16.58;;
4971;SDS011;2501;51.214;6.768;2024-03-22T12:29:42;24.83;;;15.60;;
4971;SDS011;2501;51.214;6.768;2024-03-22T12:32:08;26.30;;;16.08;;
4971;SDS011;2501;51.214;6.768;2024-03-22T12:34:34;22.97;;;15.57;;
4971;SDS011;2501;51.214;6.768;2024-03-22T12:37:00;25.88;;;14.50;;
4971;SDS011;2501;51.214;6.768;2024-03-22T12:39:28;22.55;;;14.07;;
4971;SDS011;2501;51.214;6.768;2024-03-22T12:41:54;24.50;;;15.38;;
4971;SDS011;2501;51.214;6.768;2024-03-22T12:44:20;25.20;;;14.67;;
4971;SDS011;2501;51.214;6.768;2024-03-22T12:46:46;24.23;;;14.10;;
4971;SDS011;2501;51.214;6.768;2024-03-22T12:49:12;19.93;;;13.50;;
4971;SDS011;2501;51.214;6.768;2024-03-22T12:51:38;22.25;;;13.32;;
4971;SDS011;2501;51.214;6.768;2024-03-22T12:54:04;21.35;;;12.45;;
4971;SDS011;2501;51.214;6.768;2024-03-22T12:56:33;20.33;;;12.38;;
4971;SDS011;2501;51.214;6.768;2024-03-22T12:58:59;21.35;;;12.55;;
4971;SDS011;2501;51.214;6.768;2024-03-22T13:01:25;18.88;;;11.75;;
4971;SDS011;2501;51.214;6.768;2024-03-22T13:03:51;18.33;;;11.32;;
4971;SDS011;2501;51.214;6.768;2024-03-22T13:06:17;17.70;;;10.90;;
4971;SDS011;2501;51.214;6.768;2024-03-22T13:08:42;16.95;;;11.93;;
4971;SDS011;2501;51.214;6.768;2024-03-22T13:11:08;24.47;;;14.07;;
4971;SDS011;2501;51.214;6.768;2024-03-22T13:13:37;16.65;;;12.38;;
4971;SDS011;2501;51.214;6.768;2024-03-22T13:16:03;19.83;;;11.80;;
4971;SDS011;2501;51.214;6.768;2024-03-22T13:18:29;25.25;;;13.20;;
4971;SDS011;2501;51.214;6.768;2024-03-22T13:20:55;18.20;;;12.80;;
4971;SDS011;2501;51.214;6.768;2024-03-22T13:23:21;20.52;;;12.30;;
4971;SDS011;2501;51.214;6.768;2024-03-22T13:25:46;23.35;;;12.30;;
4971;SDS011;2501;51.214;6.768;2024-03-22T13:28:12;19.30;;;12.47;;
4971;SDS011;2501;51.214;6.768;2024-03-22T13:30:41;17.67;;;11.85;;
4971;SDS011;2501;51.214;6.768;2024-03-22T13:33:07;18.00;;;10.52;;
4971;SDS011;2501;51.214;6.768;2024-03-22T13:35:32;17.50;;;9.70;;
4971;SDS011;2501;51.214;6.768;2024-03-22T13:37:58;17.60;;;11.00;;
4971;SDS011;2501;51.214;6.768;2024-03-22T13:40:24;21.63;;;11.13;;
4971;SDS011;2501;51.214;6.768;2024-03-22T13:42:52;16.85;;;10.50;;
4971;SDS011;2501;51.214;6.768;2024-03-22T13:45:18;16.85;;;10.82;;
4971;SDS011;2501;51.214;6.768;2024-03-22T13:47:47;19.88;;;11.25;;
4971;SDS011;2501;51.214;6.768;2024-03-22T13:50:12;20.88;;;11.07;;
4971;SDS011;2501;51.214;6.768;2024-03-22T13:52:38;21.10;;;10.53;;
4971;SDS011;2501;51.214;6.768;2024-03-22T13:55:05;24.63;;;11.35;;
4971;SDS011;2501;51.214;6.768;2024-03-22T13:57:31;17.83;;;10.30;;
4971;SDS011;2501;51.214;6.768;2024-03-22T13:59:57;23.70;;;11.60;;
4971;SDS011;2501;51.214;6.768;2024-03-22T14:02:24;20.90;;;11.60;;
4971;SDS011;2501;51.214;6.768;2024-03-22T14:04:52;21.67;;;11.52;;
4971;SDS011;2501;51.214;6.768;2024-03-22T14:07:18;20.95;;;11.05;;
4971;SDS011;2501;51.214;6.768;2024-03-22T14:09:44;24.53;;;11.67;;
4971;SDS011;2501;51.214;6.768;2024-03-22T14:12:10;20.00;;;11.13;;
4971;SDS011;2501;51.214;6.768;2024-03-22T14:14:35;25.47;;;12.67;;
4971;SDS011;2501;51.214;6.768;2024-03-22T14:17:01;23.10;;;11.95;;
4971;SDS011;2501;51.214;6.768;2024-03-22T14:19:27;18.80;;;11.77;;
4971;SDS011;2501;51.214;6.768;2024-03-22T14:21:56;28.25;;;12.40;;
4971;SDS011;2501;51.214;6.768;2024-03-22T14:24:22;19.90;;;11.65;;
4971;SDS011;2501;51.214;6.768;2024-03-22T14:26:47;19.83;;;11.98;;
4971;SDS011;2501;51.214;6.768;2024-03-22T14:29:13;20.17;;;11.40;;
4971;SDS011;2501;51.214;6.768;2024-03-22T14:31:39;18.65;;;12.98;;
4971;SDS011;2501;51.214;6.768;2024-03-22T14:34:05;24.77;;;13.02;;
4971;SDS011;2501;51.214;6.768;2024-03-22T14:36:31;21.35;;;13.20;;
4971;SDS011;2501;51.214;6.768;2024-03-22T14:39:00;21.13;;;14.00;;
4971;SDS011;2501;51.214;6.768;2024-03-22T14:41:27;24.48;;;13.85;;
4971;SDS011;2501;51.214;6.768;2024-03-22T14:43:52;19.63;;;12.77;;